Rockford, Washington
Current Conditions -  °F | °C
As of 9:53 PM on Thursday 18 Dec 2014 (Local Time) from KSFF Reporting Station
Haze Haze  
Wind Chill:   Ceiling: 4500
Heat Index:   Visibility: 4mi
Dew Point:   Wind: 0mph
Humidity: 89%   Direction: NA
Pressure: 29.94"   Gusts: NA
Location:  47.45°N, 117.13°W
Report Text: KSFF 190553Z AUTO 00000KT 4SM BR BKN045 OVC050 04/02 A2994 RMK AO2 RAB07E30 SLP149 P0000 60000 T00390022 10050 20033 56007
Loading
Personal Weather Stations






























Interactive Weather Map New forecast layout! Learn more

10-Day Weather Forecast

Advertisements
Track Severe Weather on mobile